Time;durP1;ratioP1;P1;durP2;ratioP2;P2;SDS_P1;SDS_P2;PMS_P1;PMS_P2;Temp;Humidity;BMP_temperature;BMP_pressure;BME280_temperature;BME280_humidity;BME280_pressure;Samples;Min_cycle;Max_cycle;Signal;HPM_P1;HPM_P2
2022/08/06 00:00:35;;;;;;;7.25;5.00;;;10.00;99.90;;;;;;4919180;29;20036;-81
2022/08/06 00:03:02;;;;;;;6.28;4.07;;;9.90;99.90;;;;;;4919739;29;20032;-81
2022/08/06 00:05:27;;;;;;;6.65;4.55;;;9.90;99.90;;;;;;4904212;29;20118;-80
2022/08/06 00:07:55;;;;;;;4.78;3.80;;;9.90;99.90;;;;;;4919701;29;20170;-80
2022/08/06 00:10:20;;;;;;;6.15;4.55;;;9.90;99.90;;;;;;4918227;29;20047;-80
2022/08/06 00:12:46;;;;;;;6.00;4.40;;;9.90;99.90;;;;;;4903811;29;20082;-80
2022/08/06 00:15:12;;;;;;;4.97;4.13;;;9.80;99.90;;;;;;4904115;29;20388;-82
2022/08/06 00:17:38;;;;;;;7.72;3.88;;;9.90;99.90;;;;;;4903238;29;20056;-81
2022/08/06 00:20:07;;;;;;;5.60;4.43;;;9.80;99.90;;;;;;4918204;29;20032;-82
2022/08/06 00:22:33;;;;;;;4.38;3.97;;;9.80;99.90;;;;;;4916608;29;20063;-81
2022/08/06 00:24:58;;;;;;;5.45;4.43;;;9.80;99.90;;;;;;4904068;29;20032;-81
2022/08/06 00:27:24;;;;;;;5.57;4.30;;;9.80;99.90;;;;;;4903343;29;20047;-81
2022/08/06 00:29:50;;;;;;;4.63;4.10;;;9.70;99.90;;;;;;4918820;29;20500;-81
2022/08/06 00:32:16;;;;;;;5.70;4.32;;;9.70;99.90;;;;;;4919796;29;20053;-82
2022/08/06 00:34:41;;;;;;;6.60;4.50;;;9.70;99.90;;;;;;4903081;29;20043;-81
2022/08/06 00:37:07;;;;;;;4.63;4.22;;;9.70;99.90;;;;;;4918700;29;20460;-82
2022/08/06 00:39:33;;;;;;;5.13;4.63;;;9.60;99.90;;;;;;4918730;29;20039;-82
2022/08/06 00:41:59;;;;;;;4.70;4.30;;;9.60;99.90;;;;;;4903770;29;20035;-81
2022/08/06 00:44:25;;;;;;;6.50;4.60;;;9.60;99.90;;;;;;4903845;29;20083;-81
2022/08/06 00:46:51;;;;;;;6.32;4.40;;;9.60;99.90;;;;;;4902314;29;20071;-81
2022/08/06 00:49:16;;;;;;;7.60;5.20;;;9.60;99.90;;;;;;4900721;29;20146;-81
2022/08/06 00:51:42;;;;;;;5.88;4.60;;;9.50;99.90;;;;;;4918638;29;20046;-83
2022/08/06 00:54:17;;;;;;;6.80;5.95;;;9.50;99.90;;;;;;4919244;29;20046;-82
2022/08/06 00:56:42;;;;;;;6.65;5.53;;;9.50;99.90;;;;;;4902687;29;20086;-82
2022/08/06 00:59:08;;;;;;;6.97;5.40;;;9.50;99.90;;;;;;4918430;29;20067;-81
2022/08/06 01:01:34;;;;;;;7.50;5.30;;;9.50;99.90;;;;;;4903052;29;20036;-81
2022/08/06 01:03:59;;;;;;;6.93;5.40;;;9.40;99.90;;;;;;4902696;29;20552;-82
2022/08/06 01:06:25;;;;;;;6.30;5.55;;;9.40;99.90;;;;;;4903114;29;20044;-81
2022/08/06 01:08:50;;;;;;;5.68;4.15;;;9.40;99.90;;;;;;4916090;29;20408;-81
2022/08/06 01:11:16;;;;;;;6.32;5.22;;;9.40;99.90;;;;;;4903051;29;20087;-81
2022/08/06 01:13:42;;;;;;;5.53;5.00;;;9.40;99.90;;;;;;4903291;29;20043;-80
2022/08/06 01:16:15;;;;;;;6.72;4.78;;;9.40;99.90;;;;;;4918403;29;20044;-80
2022/08/06 01:19:11;;;;;;;4.60;4.07;;;9.40;99.90;;;;;;4901397;29;20115;-81
2022/08/06 01:21:56;;;;;;;4.90;4.40;;;9.40;99.90;;;;;;4902280;29;20039;-81
2022/08/06 01:25:06;;;;;;;5.78;4.43;;;9.30;99.90;;;;;;4902640;29;20059;-80
2022/08/06 01:28:04;;;;;;;5.53;4.07;;;9.30;99.90;;;;;;4898943;29;20055;-81
2022/08/06 01:30:35;;;;;;;5.00;4.38;;;9.30;99.90;;;;;;4888389;29;20104;-80
2022/08/06 01:33:16;;;;;;;4.80;4.35;;;9.30;99.90;;;;;;4902671;29;20395;-81
2022/08/06 01:35:47;;;;;;;5.78;4.70;;;9.20;99.90;;;;;;4902926;29;20471;-80
2022/08/06 01:38:29;;;;;;;6.43;4.53;;;9.30;99.90;;;;;;4897067;29;20114;-80
2022/08/06 01:40:57;;;;;;;4.40;4.00;;;9.20;99.90;;;;;;4901375;29;20035;-80
2022/08/06 01:43:26;;;;;;;4.53;4.13;;;9.20;99.90;;;;;;4899470;29;20039;-80
2022/08/06 01:45:54;;;;;;;5.00;4.22;;;9.20;99.90;;;;;;4912541;29;20043;-82
2022/08/06 01:48:26;;;;;;;3.97;3.67;;;9.20;99.90;;;;;;4917304;29;20043;-80
2022/08/06 01:50:57;;;;;;;4.30;3.90;;;9.20;99.90;;;;;;4900504;29;20416;-80
2022/08/06 01:53:29;;;;;;;4.53;3.97;;;9.20;99.90;;;;;;4916779;29;20082;-80
2022/08/06 01:55:58;;;;;;;5.75;3.92;;;9.10;99.90;;;;;;4894623;29;20078;-80
2022/08/06 01:58:32;;;;;;;4.10;3.75;;;9.10;99.90;;;;;;4901895;29;20035;-80
2022/08/06 02:01:01;;;;;;;4.70;3.90;;;9.10;99.90;;;;;;4916893;29;20044;-80
2022/08/06 02:03:45;;;;;;;5.13;4.30;;;9.00;99.90;;;;;;4917950;29;20385;-81
2022/08/06 02:06:31;;;;;;;4.60;3.88;;;9.00;99.90;;;;;;4916744;29;20036;-81
2022/08/06 02:09:01;;;;;;;5.35;3.92;;;9.00;99.90;;;;;;4917364;29;20048;-81
2022/08/06 02:11:27;;;;;;;4.93;4.25;;;9.00;99.90;;;;;;4917813;29;20043;-81
2022/08/06 02:13:56;;;;;;;4.75;4.35;;;9.00;99.90;;;;;;4902335;29;20123;-81
2022/08/06 02:16:24;;;;;;;5.50;5.00;;;8.90;99.90;;;;;;4917030;29;20039;-80
2022/08/06 02:18:52;;;;;;;7.15;5.10;;;8.90;99.90;;;;;;4901514;29;20035;-82
2022/08/06 02:21:20;;;;;;;5.38;4.25;;;8.90;99.90;;;;;;4900798;29;20047;-81
2022/08/06 02:23:48;;;;;;;4.45;3.75;;;8.90;99.90;;;;;;4917852;29;20087;-81
2022/08/06 02:26:15;;;;;;;4.40;4.00;;;8.90;99.90;;;;;;4917819;29;20043;-81
2022/08/06 02:28:43;;;;;;;5.00;4.60;;;8.80;99.90;;;;;;4917444;29;20051;-80
2022/08/06 02:31:09;;;;;;;4.50;4.10;;;8.80;99.90;;;;;;4900807;29;20110;-81
2022/08/06 02:33:35;;;;;;;5.28;4.07;;;8.80;99.90;;;;;;4901829;29;20492;-81
2022/08/06 02:36:12;;;;;;;6.20;4.95;;;8.70;99.90;;;;;;4917823;29;20039;-80
2022/08/06 02:38:58;;;;;;;5.18;4.60;;;8.70;99.90;;;;;;4917627;29;20047;-80
2022/08/06 02:41:37;;;;;;;4.88;4.43;;;8.70;99.90;;;;;;4917107;29;20058;-80
2022/08/06 02:44:11;;;;;;;6.20;4.60;;;8.70;99.90;;;;;;4914222;29;20612;-81
2022/08/06 02:46:49;;;;;;;5.82;5.32;;;8.70;99.90;;;;;;4901323;29;20040;-80
2022/08/06 02:49:24;;;;;;;5.57;5.00;;;8.60;99.90;;;;;;4901684;29;20511;-80
2022/08/06 02:51:58;;;;;;;5.95;4.80;;;8.70;99.90;;;;;;4934034;29;20051;-81
2022/08/06 02:54:34;;;;;;;6.78;5.20;;;8.60;99.90;;;;;;4887115;29;20102;-81
2022/08/06 02:57:04;;;;;;;5.93;5.32;;;8.60;99.90;;;;;;4888111;29;20523;-82
2022/08/06 02:59:38;;;;;;;6.35;5.72;;;8.60;99.90;;;;;;4904171;29;20035;-82
2022/08/06 03:02:09;;;;;;;7.60;6.68;;;8.60;99.90;;;;;;4905315;29;20043;-82
2022/08/06 03:04:41;;;;;;;6.78;6.07;;;8.60;99.90;;;;;;4904024;29;20046;-81
2022/08/06 03:07:09;;;;;;;5.55;4.90;;;8.60;99.90;;;;;;4903756;29;20039;-81
2022/08/06 03:09:36;;;;;;;5.78;5.28;;;8.60;99.90;;;;;;4920519;29;20404;-80
2022/08/06 03:12:03;;;;;;;5.43;4.88;;;8.50;99.90;;;;;;4903848;29;20094;-80
2022/08/06 03:14:32;;;;;;;5.90;5.28;;;8.50;99.90;;;;;;4920604;29;20038;-80
2022/08/06 03:16:58;;;;;;;6.35;4.82;;;8.50;99.90;;;;;;4905106;29;20047;-81
2022/08/06 03:19:26;;;;;;;6.50;5.65;;;8.50;99.90;;;;;;4919964;29;20043;-81
2022/08/06 03:21:53;;;;;;;6.45;5.70;;;8.40;99.90;;;;;;4919805;29;20126;-81
2022/08/06 03:24:20;;;;;;;8.55;6.78;;;8.40;99.90;;;;;;4886584;29;20052;-80
2022/08/06 03:26:47;;;;;;;8.07;7.28;;;8.40;99.90;;;;;;4911327;29;20179;-81
2022/08/06 03:29:13;;;;;;;9.20;7.60;;;8.40;99.90;;;;;;4919629;29;20556;-81
2022/08/06 03:31:39;;;;;;;7.25;6.55;;;8.40;99.90;;;;;;4920967;29;20534;-82
2022/08/06 03:34:06;;;;;;;7.38;6.43;;;8.30;99.90;;;;;;4920039;29;20036;-83
2022/08/06 03:36:33;;;;;;;7.88;5.97;;;8.30;99.90;;;;;;4896935;29;20054;-81
2022/08/06 03:39:03;;;;;;;6.60;6.00;;;8.30;99.90;;;;;;4901408;29;20040;-81
2022/08/06 03:41:32;;;;;;;7.80;5.90;;;8.30;99.90;;;;;;4918711;29;20473;-82
2022/08/06 03:43:58;;;;;;;7.28;5.90;;;8.30;99.90;;;;;;4904831;29;20094;-81
2022/08/06 03:46:40;;;;;;;6.93;5.78;;;8.30;99.90;;;;;;4904073;29;20649;-81
2022/08/06 03:49:11;;;;;;;7.53;6.82;;;8.20;99.90;;;;;;4919861;29;20114;-81
2022/08/06 03:51:38;;;;;;;6.72;5.93;;;8.20;99.90;;;;;;4903684;29;20135;-81
2022/08/06 03:54:07;;;;;;;6.72;6.05;;;8.20;99.90;;;;;;4904388;29;20044;-82
2022/08/06 03:56:37;;;;;;;6.88;6.20;;;8.20;99.90;;;;;;4903576;29;20043;-81
2022/08/06 03:59:04;;;;;;;7.07;6.38;;;8.10;99.90;;;;;;4904066;29;20512;-82
2022/08/06 04:01:36;;;;;;;7.38;6.07;;;8.10;99.90;;;;;;4917559;29;20054;-81
2022/08/06 04:04:02;;;;;;;7.53;6.72;;;8.10;99.90;;;;;;4920185;29;20043;-81
2022/08/06 04:06:29;;;;;;;8.98;7.55;;;8.10;99.90;;;;;;4914783;29;20430;-81
2022/08/06 04:08:55;;;;;;;9.15;7.95;;;8.10;99.90;;;;;;4917038;29;20071;-83
2022/08/06 04:11:21;;;;;;;8.90;7.88;;;8.10;99.90;;;;;;4904125;29;20082;-81
2022/08/06 04:13:48;;;;;;;8.40;7.18;;;8.10;99.90;;;;;;4902996;29;20032;-81
2022/08/06 04:16:15;;;;;;;10.57;8.73;;;8.10;99.90;;;;;;4903570;29;20118;-80
2022/08/06 04:18:42;;;;;;;11.07;9.30;;;8.10;99.90;;;;;;4903559;29;20035;-80
2022/08/06 04:21:15;;;;;;;10.85;8.98;;;8.10;99.90;;;;;;4902683;29;20099;-80
2022/08/06 04:23:41;;;;;;;9.43;8.43;;;8.10;99.90;;;;;;4885161;29;20158;-81
2022/08/06 04:26:08;;;;;;;11.73;8.93;;;8.10;99.90;;;;;;4890999;29;20111;-81
2022/08/06 04:28:36;;;;;;;10.40;9.15;;;8.10;99.90;;;;;;4919773;29;20040;-80
2022/08/06 04:31:03;;;;;;;9.63;8.63;;;8.20;99.90;;;;;;4919556;29;20051;-80
2022/08/06 04:33:32;;;;;;;9.63;8.68;;;8.20;99.90;;;;;;4902116;29;20039;-81
2022/08/06 04:36:04;;;;;;;9.32;7.55;;;8.20;99.90;;;;;;4917329;29;20051;-80
2022/08/06 04:38:31;;;;;;;8.82;7.90;;;8.20;99.90;;;;;;4903373;29;20047;-80
2022/08/06 04:40:58;;;;;;;9.30;8.30;;;8.20;99.90;;;;;;4903596;29;20066;-80
2022/08/06 04:43:24;;;;;;;11.45;9.57;;;8.30;99.90;;;;;;4902829;29;20047;-81
2022/08/06 04:45:50;;;;;;;13.40;11.10;;;8.40;99.90;;;;;;4903378;29;20059;-81
2022/08/06 04:48:16;;;;;;;12.13;10.73;;;8.50;99.90;;;;;;4918893;29;20472;-81
2022/08/06 04:50:42;;;;;;;13.05;10.70;;;8.70;99.90;;;;;;4903378;29;20119;-80
2022/08/06 04:53:13;;;;;;;12.48;10.05;;;8.80;99.90;;;;;;4903385;29;20448;-81
2022/08/06 04:55:40;;;;;;;14.07;10.70;;;9.00;99.90;;;;;;4902529;29;20047;-80
2022/08/06 04:58:08;;;;;;;11.60;10.27;;;9.10;99.90;;;;;;4902992;29;20135;-80
2022/08/06 05:00:36;;;;;;;13.43;10.43;;;9.20;99.90;;;;;;4918974;29;20043;-81
2022/08/06 05:03:02;;;;;;;12.43;11.23;;;9.40;99.90;;;;;;4903314;29;20055;-80
2022/08/06 05:05:31;;;;;;;12.88;10.77;;;9.40;99.90;;;;;;4902977;29;20459;-80
2022/08/06 05:07:59;;;;;;;11.80;10.30;;;9.60;99.90;;;;;;4900488;29;20535;-81
2022/08/06 05:10:31;;;;;;;11.88;10.68;;;9.70;99.90;;;;;;4903007;29;20040;-80
2022/08/06 05:12:57;;;;;;;11.80;10.63;;;9.80;99.90;;;;;;4903022;29;20043;-80
2022/08/06 05:15:29;;;;;;;11.93;10.68;;;10.00;99.90;;;;;;4899206;29;20032;-79
2022/08/06 05:18:13;;;;;;;12.93;10.77;;;10.10;99.90;;;;;;4912359;29;20087;-80
2022/08/06 05:20:40;;;;;;;11.60;9.95;;;10.20;99.90;;;;;;4903081;29;20290;-80
2022/08/06 05:23:24;;;;;;;11.73;10.05;;;10.30;99.90;;;;;;4917532;29;20036;-80
2022/08/06 05:25:50;;;;;;;10.82;9.73;;;10.50;99.90;;;;;;4893889;29;20484;-80
2022/08/06 05:28:16;;;;;;;12.45;9.35;;;10.60;99.90;;;;;;4918106;29;20039;-80
2022/08/06 05:30:44;;;;;;;10.30;9.02;;;10.70;99.90;;;;;;4902551;29;20106;-80
2022/08/06 05:33:09;;;;;;;9.82;8.50;;;10.80;99.90;;;;;;4901786;29;20040;-80
2022/08/06 05:35:35;;;;;;;9.68;8.57;;;10.80;99.90;;;;;;4902278;29;20084;-81
2022/08/06 05:38:00;;;;;;;9.80;8.65;;;10.90;99.90;;;;;;4902797;29;20047;-81
2022/08/06 05:40:33;;;;;;;8.32;7.32;;;10.90;99.90;;;;;;4902645;29;20036;-80
2022/08/06 05:42:59;;;;;;;8.63;7.82;;;11.00;99.90;;;;;;4900618;29;20051;-80
2022/08/06 05:45:26;;;;;;;8.25;7.25;;;11.00;99.90;;;;;;4909683;29;20044;-80
2022/08/06 05:47:52;;;;;;;8.48;7.57;;;11.10;99.90;;;;;;4902018;29;20091;-81
2022/08/06 05:50:24;;;;;;;8.02;7.22;;;11.20;99.90;;;;;;4918118;29;20044;-80
2022/08/06 05:53:10;;;;;;;8.02;7.22;;;11.20;99.90;;;;;;4902238;29;20044;-80
2022/08/06 05:56:13;;;;;;;8.13;6.88;;;11.30;99.90;;;;;;4902765;29;20043;-80
2022/08/06 05:58:46;;;;;;;6.65;5.97;;;11.30;99.90;;;;;;4863845;29;20057;-81
2022/08/06 06:01:12;;;;;;;;;;;11.30;99.90;;;;;;4917507;29;20051;-80
2022/08/06 06:03:39;;;;;;;7.97;6.72;;;11.30;99.90;;;;;;4917226;29;19926;-80
2022/08/06 06:06:05;;;;;;;7.82;6.35;;;11.40;99.90;;;;;;4883423;29;20103;-81
2022/08/06 06:08:31;;;;;;;7.70;6.45;;;11.40;99.90;;;;;;4901774;29;20036;-81
2022/08/06 06:10:57;;;;;;;7.85;6.75;;;11.40;99.90;;;;;;4898867;29;20046;-80
2022/08/06 06:13:24;;;;;;;7.10;6.40;;;11.50;99.90;;;;;;4911832;29;20388;-79
2022/08/06 06:16:20;;;;;;;8.05;6.68;;;11.60;99.90;;;;;;4915733;29;20092;-80
2022/08/06 06:19:08;;;;;;;6.82;5.90;;;11.70;99.90;;;;;;4916141;29;20445;-80
2022/08/06 06:21:52;;;;;;;5.97;5.43;;;11.80;99.90;;;;;;4900445;29;20632;-81
2022/08/06 06:24:41;;;;;;;5.85;5.25;;;12.00;99.90;;;;;;4900826;29;20040;-81
2022/08/06 06:27:24;;;;;;;7.28;6.00;;;12.10;99.90;;;;;;4912982;29;20038;-80
2022/08/06 06:30:05;;;;;;;5.93;5.32;;;12.20;99.90;;;;;;4914056;29;20051;-79
2022/08/06 06:32:52;;;;;;;7.63;5.63;;;12.30;99.90;;;;;;4900524;29;20492;-80
2022/08/06 06:35:32;;;;;;;7.50;5.90;;;12.40;99.90;;;;;;4900343;29;20028;-81
2022/08/06 06:38:34;;;;;;;5.55;5.05;;;12.50;99.90;;;;;;4898484;29;20047;-80
2022/08/06 06:41:10;;;;;;;5.65;5.15;;;12.60;99.90;;;;;;4884727;29;20110;-80
2022/08/06 06:43:52;;;;;;;5.25;4.75;;;12.80;99.90;;;;;;4900525;29;20099;-79
2022/08/06 06:46:39;;;;;;;5.28;4.70;;;12.90;99.90;;;;;;4917235;29;20054;-80
2022/08/06 06:49:17;;;;;;;6.63;3.88;;;13.00;99.90;;;;;;4895770;29;20051;-80
2022/08/06 06:51:49;;;;;;;5.10;4.00;;;13.20;99.90;;;;;;4904193;29;20114;-79
2022/08/06 06:54:22;;;;;;;4.75;3.85;;;13.30;99.90;;;;;;4915507;29;20091;-80
2022/08/06 06:56:50;;;;;;;4.25;3.30;;;13.30;99.90;;;;;;4901697;29;20400;-80
2022/08/06 06:59:33;;;;;;;3.22;2.92;;;13.50;99.90;;;;;;4916202;29;20032;-79
2022/08/06 07:02:01;;;;;;;3.60;2.58;;;13.60;99.90;;;;;;4910371;29;20047;-82
2022/08/06 07:04:28;;;;;;;3.28;2.60;;;13.70;99.90;;;;;;4894193;29;20044;-81
2022/08/06 07:06:57;;;;;;;2.83;2.60;;;13.80;99.90;;;;;;4899019;29;20406;-82
2022/08/06 07:09:25;;;;;;;2.53;1.65;;;13.90;99.90;;;;;;4900337;29;20118;-81
2022/08/06 07:11:53;;;;;;;1.30;1.10;;;14.00;99.90;;;;;;4899626;29;20374;-81
2022/08/06 07:14:22;;;;;;;1.52;1.30;;;14.10;99.90;;;;;;4898815;29;20035;-81
2022/08/06 07:16:50;;;;;;;3.88;1.60;;;14.20;99.90;;;;;;4913267;29;20066;-81
2022/08/06 07:19:17;;;;;;;2.17;1.30;;;14.40;99.90;;;;;;4899117;29;20500;-81
2022/08/06 07:21:44;;;;;;;2.55;1.20;;;14.50;99.90;;;;;;4915268;29;20044;-82
2022/08/06 07:24:12;;;;;;;2.60;0.90;;;14.50;99.90;;;;;;4898800;29;20098;-81
2022/08/06 07:26:40;;;;;;;1.55;0.90;;;14.70;99.90;;;;;;4900872;29;20044;-81
2022/08/06 07:29:09;;;;;;;4.00;1.17;;;14.80;99.90;;;;;;4916851;29;20530;-81
2022/08/06 07:31:35;;;;;;;2.97;1.40;;;14.90;99.90;;;;;;4916771;29;20094;-81
2022/08/06 07:34:01;;;;;;;3.15;1.02;;;15.00;99.90;;;;;;4900344;29;20040;-83
2022/08/06 07:36:31;;;;;;;4.00;1.40;;;15.10;99.90;;;;;;4901905;29;20929;-82
2022/08/06 07:39:06;;;;;;;4.47;1.38;;;15.10;99.90;;;;;;4904435;29;20035;-82
2022/08/06 07:41:34;;;;;;;1.73;1.42;;;15.30;99.90;;;;;;4904378;29;20389;-84
2022/08/06 07:44:04;;;;;;;4.03;1.20;;;15.30;99.90;;;;;;4900852;29;20035;-84
2022/08/06 07:46:42;;;;;;;1.95;1.30;;;15.40;99.90;;;;;;4877658;29;20080;-83
2022/08/06 07:49:09;;;;;;;2.47;0.70;;;15.60;99.90;;;;;;4904905;29;20036;-84
2022/08/06 07:51:38;;;;;;;3.60;0.88;;;15.70;99.90;;;;;;4920423;29;20040;-84
2022/08/06 07:54:07;;;;;;;0.75;0.68;;;15.90;99.90;;;;;;4904684;29;20090;-85
2022/08/06 07:56:35;;;;;;;2.83;0.90;;;16.00;99.90;;;;;;4919955;29;20056;-84
2022/08/06 07:59:02;;;;;;;5.30;0.80;;;16.00;99.90;;;;;;4904171;29;20374;-84
2022/08/06 08:01:28;;;;;;;1.13;0.63;;;16.00;99.90;;;;;;4903660;29;20078;-86
2022/08/06 08:06:39;;;;;;;1.40;0.40;;;16.10;99.90;;;;;;4919835;29;20107;-85
2022/08/06 08:09:26;;;;;;;3.03;0.60;;;16.40;99.90;;;;;;4901191;29;20413;-80
2022/08/06 08:11:52;;;;;;;2.13;0.63;;;16.70;99.90;;;;;;4916391;29;20033;-80
2022/08/06 08:14:20;;;;;;;2.08;0.50;;;17.10;99.90;;;;;;4916483;29;20044;-80
2022/08/06 08:16:46;;;;;;;2.40;0.60;;;17.30;99.90;;;;;;4903860;29;20075;-80
2022/08/06 08:19:32;;;;;;;1.00;0.40;;;17.60;99.90;;;;;;4903651;29;20091;-81
2022/08/06 08:22:05;;;;;;;1.25;0.60;;;18.00;99.90;;;;;;4903083;29;20226;-81
2022/08/06 08:24:32;;;;;;;1.80;0.80;;;18.50;99.90;;;;;;4919466;29;20042;-80
2022/08/06 08:26:59;;;;;;;0.65;0.50;;;19.40;99.90;;;;;;4903039;29;20043;-81
2022/08/06 08:29:25;;;;;;;1.55;0.50;;;20.40;99.90;;;;;;4904080;29;20135;-81
2022/08/06 08:31:51;;;;;;;1.88;0.63;;;21.30;99.90;;;;;;4919032;29;20075;-81
2022/08/06 08:34:17;;;;;;;1.92;0.70;;;22.00;99.90;;;;;;4903679;29;20081;-81
2022/08/06 08:36:43;;;;;;;1.90;0.57;;;22.80;99.90;;;;;;4917737;29;20552;-81
2022/08/06 08:39:08;;;;;;;1.70;0.52;;;23.50;99.90;;;;;;4918661;29;20126;-81
2022/08/06 08:41:43;;;;;;;1.75;0.50;;;24.00;99.90;;;;;;4919246;29;20131;-81
2022/08/06 08:44:09;;;;;;;2.40;0.60;;;23.80;97.10;;;;;;4903061;29;20039;-81
2022/08/06 08:46:38;;;;;;;3.20;0.65;;;23.30;96.80;;;;;;4902753;29;20043;-81
2022/08/06 08:49:06;;;;;;;1.13;0.40;;;22.60;94.30;;;;;;4918127;29;20055;-81
2022/08/06 08:51:38;;;;;;;1.65;0.55;;;22.40;97.60;;;;;;4911497;29;20099;-82
2022/08/06 08:54:07;;;;;;;1.97;0.60;;;23.00;95.20;;;;;;4917050;29;20090;-82
2022/08/06 08:56:33;;;;;;;1.10;0.40;;;23.80;94.40;;;;;;4914515;29;20043;-82
2022/08/06 08:59:03;;;;;;;0.52;0.30;;;24.50;92.20;;;;;;4902185;29;20138;-83
2022/08/06 09:01:29;;;;;;;2.35;0.57;;;25.00;88.80;;;;;;4902229;29;20035;-82
2022/08/06 09:03:55;;;;;;;0.90;0.40;;;25.40;87.10;;;;;;4903196;29;20043;-82
2022/08/06 09:06:21;;;;;;;3.08;0.70;;;25.80;82.00;;;;;;4902403;29;20039;-83
2022/08/06 09:08:48;;;;;;;1.88;0.75;;;26.00;78.90;;;;;;4900457;29;20126;-82
2022/08/06 09:11:14;;;;;;;2.40;0.55;;;25.70;77.30;;;;;;4899069;29;20476;-82
2022/08/06 09:13:40;;;;;;;1.20;0.32;;;25.80;78.30;;;;;;4902072;29;20099;-86
2022/08/06 09:16:06;;;;;;;1.15;0.40;;;26.10;77.90;;;;;;4918577;29;20040;-84
2022/08/06 09:18:33;;;;;;;2.50;0.52;;;26.50;75.60;;;;;;4917580;29;20098;-85
2022/08/06 09:21:03;;;;;;;1.73;0.68;;;26.50;73.60;;;;;;4915271;29;20400;-85
2022/08/06 09:23:29;;;;;;;0.98;0.50;;;26.00;71.30;;;;;;4915499;29;20031;-85
2022/08/06 09:25:55;;;;;;;0.80;0.70;;;25.20;72.10;;;;;;4917764;29;20122;-83
2022/08/06 09:28:28;;;;;;;2.60;0.75;;;24.90;73.50;;;;;;4917951;29;20527;-85
2022/08/06 09:31:08;;;;;;;1.10;0.90;;;25.30;73.00;;;;;;4899828;29;20032;-84
2022/08/06 09:33:37;;;;;;;1.00;0.68;;;25.90;72.60;;;;;;4916940;29;20073;-85
2022/08/06 09:36:08;;;;;;;1.63;0.75;;;26.50;72.90;;;;;;4917777;29;20028;-87
2022/08/06 09:38:45;;;;;;;2.13;0.55;;;27.00;70.60;;;;;;4902534;29;20492;-84
2022/08/06 09:41:12;;;;;;;0.90;0.60;;;27.40;57.30;;;;;;4901928;29;20035;-84
2022/08/06 09:43:38;;;;;;;1.67;0.60;;;27.30;66.10;;;;;;4901630;29;20055;-84
2022/08/06 09:46:06;;;;;;;0.98;0.60;;;27.40;66.00;;;;;;4916791;29;20066;-83
2022/08/06 09:48:32;;;;;;;1.23;0.60;;;27.60;64.50;;;;;;4900791;29;20050;-85
2022/08/06 09:50:58;;;;;;;0.70;0.60;;;27.50;63.60;;;;;;4902142;29;20050;-83
2022/08/06 09:53:24;;;;;;;1.15;0.75;;;27.00;62.10;;;;;;4900187;29;20036;-84
2022/08/06 09:55:51;;;;;;;1.70;0.82;;;26.30;62.60;;;;;;4902154;29;20075;-84
2022/08/06 09:58:34;;;;;;;1.52;0.70;;;25.60;63.40;;;;;;4901205;29;20086;-84
2022/08/06 10:01:18;;;;;;;1.33;0.80;;;25.00;63.90;;;;;;4901691;29;20055;-83
2022/08/06 10:03:44;;;;;;;2.20;0.90;;;24.50;63.30;;;;;;4901909;29;20039;-84
2022/08/06 10:06:12;;;;;;;2.35;0.80;;;24.10;65.20;;;;;;4900277;29;20031;-84
2022/08/06 10:08:39;;;;;;;4.00;1.17;;;23.90;65.90;;;;;;4901688;29;20044;-84
2022/08/06 10:17:58;;;;;;;1.40;0.93;;;23.90;64.40;;;;;;4910805;29;20048;-79
2022/08/06 10:21:13;;;;;;;2.03;0.90;;;23.90;67.40;;;;;;4910465;29;20052;-79
2022/08/06 10:32:06;;;;;;;2.58;0.90;;;25.70;65.10;;;;;;4923824;29;22069;-81
2022/08/06 10:35:23;;;;;;;1.10;0.90;;;26.10;64.40;;;;;;4925656;29;20050;-79
2022/08/06 10:38:31;;;;;;;1.35;1.00;;;26.20;61.80;;;;;;4903927;29;20056;-80
2022/08/06 10:41:41;;;;;;;;;;;;;;;;;;;;;
2022/08/06 10:48:42;;;;;;;3.63;1.10;;;26.20;62.10;;;;;;4845504;29;20193;-79
2022/08/06 10:55:43;;;;;;;1.35;1.00;;;26.30;60.80;;;;;;4844537;29;20048;-79
2022/08/06 11:06:59;;;;;;;;;;;;;;;;;;;;;
2022/08/06 11:10:40;;;;;;;1.33;0.80;;;27.90;55.40;;;;;;4827862;29;20198;-83
2022/08/06 11:14:03;;;;;;;2.45;1.30;;;28.40;53.70;;;;;;4829052;29;20049;-82
2022/08/06 11:17:50;;;;;;;1.45;0.98;;;28.80;54.50;;;;;;4812815;29;20047;-81
2022/08/06 11:33:51;;;;;;;8.38;1.50;;;24.10;59.70;;;;;;5107579;23;20051;-78
2022/08/06 12:28:16;;;;;;;8.57;1.50;;;22.40;65.40;;;;;;5882468;23;20060;-81
2022/08/06 12:35:42;;;;;;;2.30;1.20;;;22.50;66.60;;;;;;4809679;29;20113;-81
2022/08/06 12:38:59;;;;;;;1.80;1.17;;;23.30;66.00;;;;;;4770698;29;20061;-81
2022/08/06 12:41:41;;;;;;;4.97;1.15;;;24.30;65.30;;;;;;4960370;23;20427;-78
2022/08/06 12:44:07;;;;;;;1.55;1.00;;;25.10;63.80;;;;;;4992794;28;20394;-78
2022/08/06 12:46:32;;;;;;;1.60;0.85;;;25.70;62.20;;;;;;4946703;28;20129;-78
2022/08/06 12:48:59;;;;;;;1.70;0.90;;;26.20;60.00;;;;;;4962631;28;20065;-78
2022/08/06 12:51:25;;;;;;;1.00;0.70;;;26.30;58.30;;;;;;4969421;28;20118;-78
2022/08/06 12:53:53;;;;;;;1.83;0.90;;;26.40;59.00;;;;;;4973439;28;20598;-78
2022/08/06 12:56:22;;;;;;;1.52;1.00;;;26.70;58.60;;;;;;4969353;28;20042;-79
2022/08/06 12:58:49;;;;;;;1.10;1.00;;;26.70;56.10;;;;;;4973857;28;20039;-79
2022/08/06 13:01:21;;;;;;;1.35;1.00;;;26.50;57.20;;;;;;4971608;28;20031;-79
2022/08/06 13:03:49;;;;;;;1.20;0.90;;;26.60;57.90;;;;;;4970154;28;20082;-81
2022/08/06 13:06:17;;;;;;;2.53;1.05;;;26.80;58.40;;;;;;4947929;28;20031;-80
2022/08/06 13:08:49;;;;;;;1.83;1.00;;;27.10;57.30;;;;;;4972034;28;20065;-79
2022/08/06 13:11:15;;;;;;;2.20;1.02;;;27.40;57.10;;;;;;4959183;28;20093;-79
2022/08/06 13:13:49;;;;;;;1.33;1.00;;;27.80;57.10;;;;;;4973090;28;20039;-80
2022/08/06 13:16:15;;;;;;;1.95;1.30;;;28.10;56.30;;;;;;4959044;28;20435;-80
2022/08/06 13:19:03;;;;;;;1.40;1.30;;;28.40;56.40;;;;;;4975277;28;20043;-80
2022/08/06 13:21:30;;;;;;;1.33;0.85;;;28.50;54.60;;;;;;4959914;28;20035;-80
2022/08/06 13:23:56;;;;;;;1.85;1.05;;;28.10;54.50;;;;;;4958858;28;20511;-79
2022/08/06 13:26:27;;;;;;;8.13;1.58;;;27.60;54.60;;;;;;4974084;28;20089;-79
2022/08/06 13:29:02;;;;;;;1.95;1.00;;;27.40;56.30;;;;;;4974790;28;20046;-79
2022/08/06 13:31:28;;;;;;;1.63;0.98;;;27.40;55.70;;;;;;4957804;28;20042;-80
2022/08/06 13:34:06;;;;;;;2.45;1.00;;;27.60;56.30;;;;;;4973904;28;20513;-80
2022/08/06 13:36:33;;;;;;;1.80;1.13;;;27.60;56.00;;;;;;4957290;28;20069;-80
2022/08/06 13:39:03;;;;;;;8.88;1.98;;;27.70;56.50;;;;;;4957883;28;20490;-80
2022/08/06 13:41:32;;;;;;;1.90;0.93;;;28.00;56.30;;;;;;4951105;28;20040;-80
2022/08/06 13:43:58;;;;;;;1.52;0.88;;;28.20;54.20;;;;;;4958678;28;20034;-79
2022/08/06 13:46:26;;;;;;;0.85;0.80;;;27.70;51.40;;;;;;4953649;28;20483;-80
2022/08/06 13:48:54;;;;;;;2.00;1.10;;;27.40;54.20;;;;;;4951909;28;20030;-80
2022/08/06 13:51:22;;;;;;;1.45;1.13;;;27.10;52.00;;;;;;4973437;28;20031;-80
2022/08/06 13:53:48;;;;;;;1.17;1.08;;;26.70;54.10;;;;;;4972502;28;20038;-80
2022/08/06 13:56:15;;;;;;;1.98;1.10;;;26.40;54.80;;;;;;4968964;28;20038;-80
2022/08/06 13:58:41;;;;;;;1.80;1.33;;;25.80;55.00;;;;;;4972970;28;20050;-80
2022/08/06 14:01:07;;;;;;;2.25;1.10;;;25.20;56.20;;;;;;4974493;28;20030;-80
2022/08/06 14:03:33;;;;;;;2.38;1.25;;;24.80;57.80;;;;;;4974193;28;20376;-79
2022/08/06 14:05:59;;;;;;;4.63;1.50;;;24.50;57.70;;;;;;4952504;28;20130;-80
2022/08/06 14:08:25;;;;;;;1.83;1.17;;;24.20;58.50;;;;;;4969097;28;20444;-79
2022/08/06 14:10:50;;;;;;;1.85;1.15;;;23.80;58.10;;;;;;4972984;28;20041;-79
2022/08/06 14:13:16;;;;;;;2.65;1.55;;;23.40;58.40;;;;;;4964363;28;20461;-78
2022/08/06 14:15:53;;;;;;;3.45;1.35;;;23.00;58.20;;;;;;4973222;28;20047;-79
2022/08/06 14:18:20;;;;;;;4.40;1.70;;;22.70;58.50;;;;;;4970339;28;20137;-78
2022/08/06 14:20:46;;;;;;;3.47;1.20;;;22.40;60.10;;;;;;4971479;28;20039;-78
2022/08/06 14:23:13;;;;;;;2.22;1.65;;;22.30;61.40;;;;;;4970039;28;20047;-78
2022/08/06 14:25:40;;;;;;;2.10;1.38;;;22.70;62.70;;;;;;4969086;28;20046;-78
2022/08/06 14:28:06;;;;;;;1.63;1.08;;;23.10;62.20;;;;;;4972484;28;20038;-78
2022/08/06 14:30:32;;;;;;;1.98;1.17;;;23.20;59.90;;;;;;4956348;28;20088;-78
2022/08/06 14:33:00;;;;;;;2.58;1.10;;;23.20;60.30;;;;;;4963327;28;20390;-78
2022/08/06 14:35:26;;;;;;;3.60;1.67;;;23.10;60.10;;;;;;4950493;28;20159;-78
2022/08/06 14:37:53;;;;;;;3.03;1.67;;;23.00;62.30;;;;;;4968323;28;20126;-78
2022/08/06 14:45:48;;;;;;;5.75;1.85;;;22.60;62.50;;;;;;4970654;28;20257;-78
2022/08/06 14:48:14;;;;;;;1.60;1.20;;;22.40;63.70;;;;;;4960327;28;20073;-78
2022/08/06 14:50:40;;;;;;;3.75;1.23;;;22.30;64.20;;;;;;4951512;28;20506;-78
2022/08/06 14:53:05;;;;;;;1.75;1.25;;;22.20;64.00;;;;;;4973469;28;20042;-78
2022/08/06 14:55:31;;;;;;;2.15;1.30;;;22.00;64.60;;;;;;4975861;28;20043;-78
2022/08/06 14:57:57;;;;;;;2.22;1.50;;;22.10;65.40;;;;;;4976005;28;20038;-77
2022/08/06 15:00:22;;;;;;;1.15;1.05;;;22.50;64.80;;;;;;4977280;28;20031;-78
2022/08/06 15:02:50;;;;;;;1.92;1.38;;;22.90;63.10;;;;;;4977228;28;20089;-78
2022/08/06 15:05:16;;;;;;;1.80;1.13;;;23.10;62.60;;;;;;4976596;28;20101;-78